Terminal Aerodrome Forecast
Issued by NWS

Home | Current Version | Previous Version | Text Only | Print | Product List | Glossary On
Versions: 1 2 3 4 5 6 7 8 9 10 11 12 13 14
000
FTUS44 KEPZ 200500
TAFLRU
TAF
KLRU 200530Z 2006/2106 27006KT P6SM SCT140 BKN250
     FM201900 26007KT P6SM FEW070 SCT150
     FM202100 25007KT P6SM VCTS SCT070CB SCT150=

USA.gov is the U.S. government's official web portal to all federal, state and local government web resources and services.